Airfield :
LOGIN :

Register | Disclaimer

   EN    FR    IT 

 










Legend :    VFR   Marginal VFR   IFR   Intensive IFR   Very Intensive IFR
Visi :
Ceiling :
>= 8 km
>= 3000ft
5 to 8 km
1000 to 3000 ft
1500m to 5 km
500 to 1000 ft
800 to 1500m
200 to 500 ft
< 800m
< 200 ft
Symbols :   Thunderstorms  Fog  Heavy snow  Heavy precipitations  Wind > 20 kt
SIGMETs :     Misc.  Thunderstorms  Icing  Turbulence  Mountain Waves  Volcanic Ashes






- Airport Elevation : 499 ft
- IATA code : TLS


LFBO - Toulouse / Blagnac

CURRENT METAR :
  • 281000Z AUTO 14006KT 3100 BR OVC004 09/09 Q1022 TEMPO 2000 BKN008 OVC020

EXPIRED METARs :
  • 280930Z AUTO 13004KT 100V170 3700 BR OVC004 09/08 Q1022 TEMPO 2000 BKN008 OVC020
  • 280900Z AUTO 14004KT 3800 BR BKN003 OVC016 08/08 Q1022 BECMG 9999 NSW SCT008 BKN020
  • 280830Z AUTO 15006KT 2500 -DZ BR BKN005 OVC019 08/07 Q1022 BECMG 9999 NSW SCT008 BKN020
  • 280800Z AUTO 15003KT 5000 -DZ BR BKN004 BKN022 OVC031 08/07 Q1022 TEMPO OVC006
  • 280730Z AUTO VRB03KT 4600 -RA BR BKN005 BKN010 OVC021 07/07 Q1022 BECMG 9999 NSW

TAF AMD TAF LFBO
Valid from the 28 at 09:00 until the 29 at 12:00 UTC


280913Z 2809/2912 34003KT 9999 SCT008 BKN020
TEMPO 2809/2812 4000 -DZ BKN008 OVC020
PROB40
TEMPO 2809/2811 2000 OVC004
BECMG 2812/2814 09006KT
BECMG 2819/2821 14010KT CAVOK
PROB40
TEMPO 2900/2906 14015G25KT BKN008
BECMG 2910/2912 24006KT
ATIS : +33 5 62 74 66 36



MET'MAP, your aeronautical weather chart ! - Copyright ORBIFLY December 2007 - Disclaimer

ORBIFLY MET'MAP TEAM :

Programming & Development : Alexandra Zaïnal
Concept & original design : Baudouin d'Aumeries
Assistance for programming : Marc-Olivier Méhu
Technical & hardware support : Manuel Goepfert

Contact : metmap@orbifly.com




SOURCES & CREDITS :

   NOAA